createdAt,value
2023-04-16T00:00:54.822Z,102128.63
2023-04-16T00:03:22.877Z,102128.63
2023-04-16T00:05:51.390Z,102134.03
2023-04-16T00:08:19.148Z,102128.94
2023-04-16T00:10:46.935Z,102128.63
2023-04-16T00:13:14.688Z,102127.88
2023-04-16T00:15:43.797Z,102122.44
2023-04-16T00:18:11.667Z,102132.19
2023-04-16T00:20:39.503Z,102128.31
2023-04-16T00:23:07.396Z,102131.75
2023-04-16T00:25:35.189Z,102133.38
2023-04-16T00:28:02.975Z,102133.72
2023-04-16T00:30:30.764Z,102131.06
2023-04-16T00:32:59.969Z,102133.44
2023-04-16T00:35:28.202Z,102130.72
2023-04-16T00:37:56.276Z,102129.88
2023-04-16T00:40:24.325Z,102132.59
2023-04-16T00:42:52.539Z,102129.47
2023-04-16T00:45:20.342Z,102129.13
2023-04-16T00:47:48.198Z,102136.44
2023-04-16T00:50:17.622Z,102128.31
2023-04-16T00:52:48.177Z,102134.84
2023-04-16T00:55:18.575Z,102129.41
2023-04-16T00:57:46.911Z,102134.84
2023-04-16T01:00:15.449Z,102130.59
2023-04-16T01:02:43.532Z,102134.84
2023-04-16T01:05:11.513Z,102124.69
2023-04-16T01:07:40.702Z,102125.75
2023-04-16T01:10:09.302Z,102133.22
2023-04-16T01:12:37.163Z,102136.41
2023-04-16T01:15:05.597Z,102133.72
2023-04-16T01:17:33.355Z,102129.13
2023-04-16T01:20:01.742Z,102132.59
2023-04-16T01:22:30.934Z,102125.53
2023-04-16T01:24:58.707Z,102133.97
2023-04-16T01:27:27.049Z,102139.78
2023-04-16T01:29:56.274Z,102134.69
2023-04-16T01:32:33.241Z,102133.09
2023-04-16T01:35:01.048Z,102140.56
2023-04-16T01:37:30.547Z,102138.28
2023-04-16T01:39:58.314Z,102133.63
2023-04-16T01:42:26.099Z,102142.66
2023-04-16T01:44:53.912Z,102136.44
2023-04-16T01:47:22.118Z,102139.16
2023-04-16T01:49:50.166Z,102143.09
2023-04-16T01:52:17.962Z,102133.41
2023-04-16T01:54:47.078Z,102141.16
2023-04-16T01:57:14.833Z,102146.13
2023-04-16T01:59:42.572Z,102143.78
2023-04-16T02:02:12.059Z,102148.53
2023-04-16T02:04:40.720Z,102146.97
2023-04-16T02:07:09.375Z,102141.88
2023-04-16T02:09:38.142Z,102147.28
2023-04-16T02:12:11.227Z,102147.78
2023-04-16T02:14:39.124Z,102146.59
2023-04-16T02:17:07.151Z,102146.97
2023-04-16T02:19:39.168Z,102145.44
2023-04-16T02:22:07.148Z,102140.69
2023-04-16T02:24:34.927Z,102141.06
2023-04-16T02:27:07.100Z,102146.50
2023-04-16T02:29:36.472Z,102144.16
2023-04-16T02:32:12.010Z,102143.38
2023-04-16T02:34:43.450Z,102139.06
2023-04-16T02:37:12.227Z,102142.91
2023-04-16T02:39:39.994Z,102141.31
2023-04-16T02:42:07.812Z,102140.56
2023-04-16T02:44:37.521Z,102140.91
2023-04-16T02:47:05.501Z,102136.22
2023-04-16T02:49:33.292Z,102140.50
2023-04-16T02:52:01.058Z,102142.03
2023-04-16T02:54:28.832Z,102143.94
2023-04-16T02:56:56.789Z,102149.81
2023-04-16T02:59:24.564Z,102146.72
2023-04-16T03:01:54.037Z,102146.75
2023-04-16T03:04:22.010Z,102147.84
2023-04-16T03:06:49.806Z,102143.53
2023-04-16T03:09:17.582Z,102139.97
2023-04-16T03:11:45.385Z,102148.56
2023-04-16T03:14:13.296Z,102147.84
2023-04-16T03:16:42.494Z,102148.59
2023-04-16T03:19:11.871Z,102157.97
2023-04-16T03:21:39.832Z,102165.34
2023-04-16T03:24:07.620Z,102166.19
2023-04-16T03:26:35.586Z,102160.34
2023-04-16T03:29:03.545Z,102158.78
2023-04-16T03:31:32.812Z,102159.59
2023-04-16T03:34:00.874Z,102170.91
2023-04-16T03:36:30.031Z,102164.69
2023-04-16T03:38:57.906Z,102172.81
2023-04-16T03:41:25.829Z,102171.72
2023-04-16T03:43:53.562Z,102168.63
2023-04-16T03:46:21.399Z,102169.84
2023-04-16T03:48:49.260Z,102174.06
2023-04-16T03:51:17.109Z,102171.63
2023-04-16T03:53:46.269Z,102185.22
2023-04-16T03:56:15.555Z,102176.69
2023-04-16T03:58:43.333Z,102174.44
2023-04-16T04:01:11.116Z,102176.41
2023-04-16T04:03:39.711Z,102170.31
2023-04-16T04:06:09.026Z,102171.88
2023-04-16T04:08:36.831Z,102180.06
2023-04-16T04:11:07.182Z,102178.53
2023-04-16T04:13:36.686Z,102172.28
2023-04-16T04:16:05.525Z,102179.31
2023-04-16T04:18:33.587Z,102173.09
2023-04-16T04:21:01.380Z,102186.28
2023-04-16T04:23:31.964Z,102179.31
2023-04-16T04:25:59.824Z,102173.88
2023-04-16T04:28:29.372Z,102180.91
2023-04-16T04:30:57.436Z,102187.09
2023-04-16T04:33:25.522Z,102183.19
2023-04-16T04:35:53.468Z,102189.75
2023-04-16T04:38:22.357Z,102196.78
2023-04-16T04:40:50.982Z,102195.63
2023-04-16T04:43:20.351Z,102200.25
2023-04-16T04:45:49.785Z,102196.09
2023-04-16T04:48:18.688Z,102201.94
2023-04-16T04:50:47.118Z,102212.81
2023-04-16T04:53:15.360Z,102213.91
2023-04-16T04:55:43.875Z,102210.00
2023-04-16T04:58:11.747Z,102219.69
2023-04-16T05:00:41.020Z,102211.53
2023-04-16T05:03:12.673Z,102204.56
2023-04-16T05:05:41.140Z,102211.53
2023-04-16T05:08:09.003Z,102205.38
2023-04-16T05:10:36.768Z,102220.16
2023-04-16T05:13:04.537Z,102211.59
2023-04-16T05:15:32.346Z,102206.97
2023-04-16T05:18:00.169Z,102211.63
2023-04-16T05:20:29.326Z,102220.16
2023-04-16T05:22:57.174Z,102212.81
2023-04-16T05:25:25.110Z,102213.91
2023-04-16T05:27:52.889Z,102214.25
2023-04-16T05:30:20.677Z,102214.25
2023-04-16T05:32:48.462Z,102214.66
2023-04-16T05:35:17.686Z,102220.09
2023-04-16T05:37:46.960Z,102226.34
2023-04-16T05:40:15.387Z,102227.09
2023-04-16T05:42:43.212Z,102226.34
2023-04-16T05:45:11.757Z,102230.59
2023-04-16T05:47:39.563Z,102229.81
2023-04-16T05:50:08.440Z,102230.59
2023-04-16T05:52:36.209Z,102235.63
2023-04-16T05:55:05.890Z,102243.00
2023-04-16T05:57:34.552Z,102236.03
2023-04-16T06:00:05.292Z,102242.22
2023-04-16T06:02:40.465Z,102244.94
2023-04-16T06:05:08.974Z,102239.88
2023-04-16T06:07:36.853Z,102247.28
2023-04-16T06:10:06.847Z,102239.06
2023-04-16T06:12:37.553Z,102244.50
2023-04-16T06:15:06.378Z,102246.44
2023-04-16T06:17:34.168Z,102251.53
2023-04-16T06:20:01.935Z,102254.22
2023-04-16T06:22:29.811Z,102254.59
2023-04-16T06:24:57.706Z,102256.84
2023-04-16T06:27:27.158Z,102260.34
2023-04-16T06:29:54.948Z,102263.47
2023-04-16T06:32:22.762Z,102266.53
2023-04-16T06:34:50.890Z,102266.16
2023-04-16T06:37:18.685Z,102264.94
2023-04-16T06:39:46.474Z,102268.81
2023-04-16T06:42:14.272Z,102270.72
2023-04-16T06:44:43.439Z,102275.41
2023-04-16T06:47:11.368Z,102270.31
2023-04-16T06:49:40.545Z,102274.94
2023-04-16T06:52:08.463Z,102276.09
2023-04-16T06:54:36.392Z,102281.94
2023-04-16T06:57:04.208Z,102281.53
2023-04-16T06:59:32.566Z,102288.19
2023-04-16T07:02:01.987Z,102287.00
2023-04-16T07:04:29.902Z,102290.53
2023-04-16T07:06:57.670Z,102290.94
2023-04-16T07:09:26.709Z,102289.03
2023-04-16T07:11:54.914Z,102299.84
2023-04-16T07:14:22.688Z,102299.84
2023-04-16T07:16:50.595Z,102299.09
2023-04-16T07:19:19.797Z,102308.00
2023-04-16T07:21:47.658Z,102304.38
2023-04-16T07:24:15.688Z,102305.63
2023-04-16T07:26:43.516Z,102312.97
2023-04-16T07:29:11.525Z,102309.03
2023-04-16T07:31:39.816Z,102315.97
2023-04-16T07:34:07.614Z,102306.63
2023-04-16T07:36:36.806Z,102312.81
2023-04-16T07:39:05.540Z,102316.69
2023-04-16T07:41:33.439Z,102322.50
2023-04-16T07:44:01.890Z,102323.28
2023-04-16T07:46:39.353Z,102321.31
2023-04-16T07:49:11.540Z,102332.22
2023-04-16T07:51:40.769Z,102334.13
2023-04-16T07:54:08.569Z,102332.97
2023-04-16T07:56:36.913Z,102339.94
2023-04-16T07:59:18.413Z,102334.84
2023-04-16T08:01:50.338Z,102342.25
2023-04-16T08:04:24.346Z,102340.22
2023-04-16T08:06:54.343Z,102340.66
2023-04-16T08:09:23.572Z,102348.78
2023-04-16T08:11:51.410Z,102356.19
2023-04-16T08:14:19.178Z,102352.63
2023-04-16T08:16:47.190Z,102356.84
2023-04-16T08:19:15.015Z,102361.50
2023-04-16T08:21:42.793Z,102360.28
2023-04-16T08:24:11.983Z,102369.94
2023-04-16T08:26:39.786Z,102368.72
2023-04-16T08:29:07.640Z,102375.28
2023-04-16T08:31:35.632Z,102379.53
2023-04-16T08:34:03.441Z,102369.47
2023-04-16T08:36:31.312Z,102374.16
2023-04-16T08:38:59.135Z,102377.66
2023-04-16T08:41:31.977Z,102371.72
2023-04-16T08:44:04.211Z,102378.28
2023-04-16T08:46:34.932Z,102376.25
2023-04-16T08:49:06.810Z,102376.56
2023-04-16T08:51:36.123Z,102385.88
2023-04-16T08:54:06.135Z,102388.59
2023-04-16T08:56:38.561Z,102382.72
2023-04-16T08:59:06.963Z,102384.28
2023-04-16T09:01:36.177Z,102386.53
2023-04-16T09:04:04.619Z,102384.88
2023-04-16T09:06:34.086Z,102388.31
2023-04-16T09:09:04.706Z,102388.22
2023-04-16T09:11:32.708Z,102393.19
2023-04-16T09:14:01.993Z,102393.13
2023-04-16T09:16:34.560Z,102397.78
2023-04-16T09:19:02.545Z,102388.38
2023-04-16T09:21:31.019Z,102388.75
2023-04-16T09:23:59.386Z,102396.53
2023-04-16T09:26:28.487Z,102397.28
2023-04-16T09:28:56.302Z,102404.66
2023-04-16T09:31:25.529Z,102403.88
2023-04-16T09:34:04.896Z,102409.25
2023-04-16T09:36:33.544Z,102408.84
2023-04-16T09:39:01.871Z,102411.09
2023-04-16T09:41:30.820Z,102412.22
2023-04-16T09:44:00.497Z,102420.91
2023-04-16T09:46:32.705Z,102422.78
2023-04-16T09:49:06.401Z,102418.47
2023-04-16T09:51:38.395Z,102421.91
2023-04-16T09:54:06.663Z,102422.69
2023-04-16T09:56:34.727Z,102433.94
2023-04-16T09:59:02.595Z,102435.97
2023-04-16T10:01:33.449Z,102435.13
2023-04-16T10:04:01.448Z,102432.13
2023-04-16T10:06:31.153Z,102439.88
2023-04-16T10:08:58.962Z,102439.00
2023-04-16T10:11:27.156Z,102436.63
2023-04-16T10:13:54.943Z,102438.88
2023-04-16T10:16:23.840Z,102445.94
2023-04-16T10:18:54.602Z,102440.88
2023-04-16T10:21:22.649Z,102435.13
2023-04-16T10:23:52.553Z,102440.97
2023-04-16T10:26:20.985Z,102441.25
2023-04-16T10:28:49.079Z,102436.91
2023-04-16T10:31:17.242Z,102436.13
2023-04-16T10:33:46.260Z,102444.66
2023-04-16T10:36:16.967Z,102443.47
2023-04-16T10:38:48.407Z,102442.63
2023-04-16T10:41:16.773Z,102447.59
2023-04-16T10:43:46.415Z,102445.66
2023-04-16T10:46:21.999Z,102440.88
2023-04-16T10:48:51.362Z,102443.97
2023-04-16T10:51:29.414Z,102448.94
2023-04-16T10:53:59.094Z,102444.28
2023-04-16T10:56:27.914Z,102447.06
2023-04-16T10:58:57.125Z,102445.53
2023-04-16T11:01:32.723Z,102446.31
2023-04-16T11:04:03.356Z,102450.03
2023-04-16T11:06:32.900Z,102445.63
2023-04-16T11:09:00.843Z,102447.50
2023-04-16T11:11:38.507Z,102447.47
2023-04-16T11:14:07.710Z,102446.75
2023-04-16T11:16:35.498Z,102450.31
2023-04-16T11:19:03.381Z,102452.25
2023-04-16T11:21:32.832Z,102449.84
2023-04-16T11:24:00.649Z,102452.06
2023-04-16T11:26:30.607Z,102447.88
2023-04-16T11:29:00.200Z,102451.00
2023-04-16T11:31:28.240Z,102455.31
2023-04-16T11:33:57.870Z,102456.41
2023-04-16T11:36:27.811Z,102452.91
2023-04-16T11:39:04.518Z,102463.75
2023-04-16T11:41:32.369Z,102460.97
2023-04-16T11:44:00.198Z,102458.59
2023-04-16T11:46:39.551Z,102460.91
2023-04-16T11:49:07.534Z,102456.19
2023-04-16T11:51:40.966Z,102457.31
2023-04-16T11:54:11.992Z,102455.28
2023-04-16T11:56:46.104Z,102454.88
2023-04-16T11:59:15.237Z,102463.09
2023-04-16T12:01:46.469Z,102462.09
2023-04-16T12:04:14.885Z,102464.69
2023-04-16T12:06:42.795Z,102463.06
2023-04-16T12:09:28.143Z,102464.63
2023-04-16T12:11:55.961Z,102465.66
2023-04-16T12:14:24.199Z,102470.34
2023-04-16T12:16:51.998Z,102470.44
2023-04-16T12:19:19.857Z,102469.22
2023-04-16T12:21:49.812Z,102474.78
2023-04-16T12:24:20.819Z,102477.72
2023-04-16T12:26:55.941Z,102489.63
2023-04-16T12:29:25.091Z,102484.50
2023-04-16T12:31:54.734Z,102487.56
2023-04-16T12:34:25.559Z,102480.94
2023-04-16T12:37:11.219Z,102490.75
2023-04-16T12:39:39.052Z,102483.47
2023-04-16T12:42:11.178Z,102484.22
2023-04-16T12:44:39.066Z,102486.25
2023-04-16T12:47:06.996Z,102482.75
2023-04-16T12:49:34.878Z,102488.38
2023-04-16T12:52:03.572Z,102487.78
2023-04-16T12:54:31.615Z,102487.34
2023-04-16T12:56:59.440Z,102485.66
2023-04-16T12:59:28.657Z,102484.81
2023-04-16T13:01:56.499Z,102486.69
2023-04-16T13:04:25.710Z,102483.47
2023-04-16T13:06:53.870Z,102493.72
2023-04-16T13:09:21.787Z,102493.72
2023-04-16T13:11:49.614Z,102485.16
2023-04-16T13:14:17.402Z,102482.44
2023-04-16T13:16:46.567Z,102488.25
2023-04-16T13:19:15.866Z,102481.16
2023-04-16T13:21:43.757Z,102487.31
2023-04-16T13:24:11.554Z,102478.97
2023-04-16T13:26:39.316Z,102486.31
2023-04-16T13:29:07.053Z,102480.25
2023-04-16T13:31:34.885Z,102469.31
2023-04-16T13:34:04.779Z,102476.13
2023-04-16T13:36:33.524Z,102479.56
2023-04-16T13:39:01.460Z,102475.19
2023-04-16T13:41:29.201Z,102481.38
2023-04-16T13:43:57.015Z,102480.66
2023-04-16T13:46:25.569Z,102485.28
2023-04-16T13:48:53.771Z,102484.47
2023-04-16T13:51:23.279Z,102488.84
2023-04-16T13:53:51.100Z,102483.38
2023-04-16T13:56:18.928Z,102481.78
2023-04-16T13:58:46.744Z,102484.88
2023-04-16T14:01:14.815Z,102483.59
2023-04-16T14:03:42.701Z,102470.06
2023-04-16T14:06:10.609Z,102473.19
2023-04-16T14:08:39.726Z,102487.47
2023-04-16T14:11:09.037Z,102480.47
2023-04-16T14:13:37.475Z,102479.59
2023-04-16T14:16:05.726Z,102474.81
2023-04-16T14:18:33.546Z,102474.03
2023-04-16T14:21:02.123Z,102478.22
2023-04-16T14:23:29.980Z,102484.03
2023-04-16T14:25:59.075Z,102474.97
2023-04-16T14:28:26.997Z,102477.88
2023-04-16T14:30:54.722Z,102471.38
2023-04-16T14:33:22.510Z,102476.72
2023-04-16T14:35:51.379Z,102480.94
2023-04-16T14:38:19.262Z,102489.47
2023-04-16T14:40:47.110Z,102480.50
2023-04-16T14:43:16.412Z,102487.28
2023-04-16T14:45:44.451Z,102481.09
2023-04-16T14:48:12.345Z,102481.56
2023-04-16T14:50:43.615Z,102479.34
2023-04-16T14:53:12.281Z,102481.38
2023-04-16T14:55:40.122Z,102480.94
2023-04-16T14:58:07.940Z,102473.16
2023-04-16T15:00:37.177Z,102472.22
2023-04-16T15:03:05.801Z,102473.22
2023-04-16T15:05:33.887Z,102475.13
2023-04-16T15:08:02.119Z,102466.13
2023-04-16T15:10:29.854Z,102471.03
2023-04-16T15:12:57.596Z,102471.19
2023-04-16T15:15:25.494Z,102468.19
2023-04-16T15:17:56.758Z,102465.50
2023-04-16T15:20:24.581Z,102469.94
2023-04-16T15:22:54.235Z,102473.94
2023-04-16T15:25:21.984Z,102473.03
2023-04-16T15:27:49.800Z,102473.28
2023-04-16T15:30:17.742Z,102471.72
2023-04-16T15:32:46.025Z,102469.94
2023-04-16T15:35:15.555Z,102474.66
2023-04-16T15:37:43.391Z,102471.84
2023-04-16T15:40:11.484Z,102471.69
2023-04-16T15:42:39.903Z,102474.94
2023-04-16T15:45:08.413Z,102474.16
2023-04-16T15:47:38.966Z,102472.97
2023-04-16T15:50:08.712Z,102466.38
2023-04-16T15:52:38.628Z,102468.25
2023-04-16T15:55:07.220Z,102466.81
2023-04-16T15:57:34.970Z,102473.75
2023-04-16T16:00:11.203Z,102473.41
2023-04-16T16:02:40.805Z,102468.97
2023-04-16T16:05:11.257Z,102467.69
2023-04-16T16:07:40.873Z,102475.31
2023-04-16T16:10:10.096Z,102471.44
2023-04-16T16:12:37.908Z,102468.47
2023-04-16T16:15:06.879Z,102468.97
2023-04-16T16:17:34.748Z,102462.81
2023-04-16T16:20:03.631Z,102462.47
2023-04-16T16:22:31.433Z,102469.16
2023-04-16T16:25:00.558Z,102478.22
2023-04-16T16:27:28.345Z,102469.56
2023-04-16T16:29:56.097Z,102469.50
2023-04-16T16:32:24.129Z,102475.47
2023-04-16T16:34:51.896Z,102478.38
2023-04-16T16:37:19.674Z,102481.56
2023-04-16T16:39:47.452Z,102465.56
2023-04-16T16:42:18.693Z,102464.66
2023-04-16T16:44:48.674Z,102467.56
2023-04-16T16:47:17.558Z,102463.72
2023-04-16T16:49:45.581Z,102467.66
2023-04-16T16:52:13.385Z,102472.28
2023-04-16T16:54:42.643Z,102470.56
2023-04-16T16:57:10.668Z,102471.00
2023-04-16T16:59:39.873Z,102474.94
2023-04-16T17:02:08.236Z,102485.25
2023-04-16T17:04:36.172Z,102478.50
2023-04-16T17:07:04.002Z,102486.72
2023-04-16T17:09:31.868Z,102486.38
2023-04-16T17:11:59.678Z,102487.16
2023-04-16T17:14:27.507Z,102486.66
2023-04-16T17:16:56.748Z,102486.66
2023-04-16T17:19:24.636Z,102482.81
2023-04-16T17:21:53.662Z,102485.00
2023-04-16T17:24:21.528Z,102498.50
2023-04-16T17:26:49.369Z,102500.97
2023-04-16T17:29:17.218Z,102493.25
2023-04-16T17:31:45.081Z,102497.47
2023-04-16T17:34:14.320Z,102506.19
2023-04-16T17:36:42.116Z,102508.34
2023-04-16T17:39:10.226Z,102506.53
2023-04-16T17:41:38.014Z,102516.25
2023-04-16T17:44:06.006Z,102511.94
2023-04-16T17:46:33.909Z,102512.06
2023-04-16T17:49:01.760Z,102517.75
2023-04-16T17:51:31.314Z,102522.44
2023-04-16T17:53:59.091Z,102526.66
2023-04-16T17:56:27.183Z,102524.72
2023-04-16T17:58:55.242Z,102522.56
2023-04-16T18:01:23.129Z,102526.47
2023-04-16T18:03:51.096Z,102532.47
2023-04-16T18:06:19.736Z,102519.63
2023-04-16T18:08:48.892Z,102530.66
2023-04-16T18:11:16.646Z,102528.88
2023-04-16T18:13:44.673Z,102536.66
2023-04-16T18:16:16.561Z,102539.03
2023-04-16T18:18:44.656Z,102540.13
2023-04-16T18:21:12.793Z,102541.75
2023-04-16T18:23:40.999Z,102540.28
2023-04-16T18:26:11.046Z,102538.97
2023-04-16T18:28:39.205Z,102541.28
2023-04-16T18:31:07.835Z,102546.75
2023-04-16T18:33:53.982Z,102546.03
2023-04-16T18:36:23.129Z,102552.97
2023-04-16T18:39:00.932Z,102549.13
2023-04-16T18:41:31.718Z,102559.09
2023-04-16T18:43:59.637Z,102568.00
2023-04-16T18:46:27.800Z,102567.53
2023-04-16T18:48:55.719Z,102563.97
2023-04-16T18:51:23.526Z,102569.91
2023-04-16T18:53:51.617Z,102569.16
2023-04-16T18:56:19.476Z,102574.59
2023-04-16T18:58:49.304Z,102575.00
2023-04-16T19:01:17.936Z,102574.59
2023-04-16T19:03:46.190Z,102576.25
2023-04-16T19:06:14.019Z,102580.53
2023-04-16T19:08:41.804Z,102573.47
2023-04-16T19:11:09.573Z,102579.09
2023-04-16T19:13:38.623Z,102580.75
2023-04-16T19:16:11.427Z,102576.91
2023-04-16T19:18:40.237Z,102580.88
2023-04-16T19:21:09.973Z,102582.06
2023-04-16T19:23:37.779Z,102581.75
2023-04-16T19:26:05.674Z,102586.44
2023-04-16T19:28:33.507Z,102589.16
2023-04-16T19:31:01.272Z,102580.91
2023-04-16T19:33:31.315Z,102582.50
2023-04-16T19:36:00.169Z,102584.84
2023-04-16T19:38:27.966Z,102574.13
2023-04-16T19:40:56.197Z,102578.94
2023-04-16T19:43:24.023Z,102578.94
2023-04-16T19:45:53.443Z,102585.03
2023-04-16T19:48:21.893Z,102583.13
2023-04-16T19:50:51.208Z,102581.94
2023-04-16T19:53:19.026Z,102588.16
2023-04-16T19:55:46.828Z,102583.63
2023-04-16T19:58:14.689Z,102588.75
2023-04-16T20:00:42.678Z,102593.13
2023-04-16T20:03:10.804Z,102588.91
2023-04-16T20:05:38.673Z,102594.72
2023-04-16T20:08:07.969Z,102598.88
2023-04-16T20:10:36.033Z,102596.06
2023-04-16T20:13:04.911Z,102588.22
2023-04-16T20:15:32.708Z,102602.22
2023-04-16T20:18:00.584Z,102608.84
2023-04-16T20:20:28.349Z,102599.91
2023-04-16T20:22:56.667Z,102595.22
2023-04-16T20:25:26.278Z,102599.22
2023-04-16T20:27:54.061Z,102602.34
2023-04-16T20:30:22.564Z,102595.34
2023-04-16T20:32:50.394Z,102594.19
2023-04-16T20:35:18.285Z,102593.06
2023-04-16T20:37:46.582Z,102595.09
2023-04-16T20:40:14.968Z,102592.81
2023-04-16T20:42:46.579Z,102588.59
2023-04-16T20:45:17.830Z,102595.22
2023-04-16T20:47:45.639Z,102590.19
2023-04-16T20:50:13.613Z,102587.56
2023-04-16T20:52:42.318Z,102581.72
2023-04-16T20:55:10.552Z,102589.50
2023-04-16T20:57:38.311Z,102584.84
2023-04-16T21:00:11.833Z,102584.06
2023-04-16T21:02:39.787Z,102583.31
2023-04-16T21:05:09.645Z,102578.22
2023-04-16T21:07:37.492Z,102578.16
2023-04-16T21:10:05.812Z,102571.56
2023-04-16T21:12:33.558Z,102574.00
2023-04-16T21:15:01.516Z,102581.50
2023-04-16T21:17:30.690Z,102576.41
2023-04-16T21:19:58.551Z,102573.69
2023-04-16T21:22:26.384Z,102571.38
2023-04-16T21:24:54.194Z,102574.06
2023-04-16T21:27:21.959Z,102577.47
2023-04-16T21:29:49.754Z,102573.16
2023-04-16T21:32:17.558Z,102574.34
2023-04-16T21:34:46.689Z,102565.53
2023-04-16T21:37:14.503Z,102570.31
2023-04-16T21:39:42.227Z,102575.00
2023-04-16T21:42:10.034Z,102572.63
2023-04-16T21:44:37.770Z,102574.94
2023-04-16T21:47:05.752Z,102570.25
2023-04-16T21:49:33.629Z,102578.41
2023-04-16T21:52:02.815Z,102581.97
2023-04-16T21:54:30.650Z,102578.09
2023-04-16T21:56:58.614Z,102575.00
2023-04-16T21:59:26.415Z,102577.34
2023-04-16T22:01:54.270Z,102584.38
2023-04-16T22:04:26.039Z,102581.66
2023-04-16T22:06:56.300Z,102586.00
2023-04-16T22:09:25.725Z,102571.19
2023-04-16T22:11:53.499Z,102574.31
2023-04-16T22:14:21.506Z,102582.09
2023-04-16T22:16:51.760Z,102578.63
2023-04-16T22:19:19.782Z,102575.50
2023-04-16T22:21:48.440Z,102569.69
2023-04-16T22:24:16.488Z,102575.91
2023-04-16T22:26:45.705Z,102574.75
2023-04-16T22:29:13.840Z,102579.84
2023-04-16T22:31:41.725Z,102576.72
2023-04-16T22:34:09.549Z,102563.53
2023-04-16T22:36:37.339Z,102568.16
2023-04-16T22:39:08.439Z,102572.09
2023-04-16T22:41:36.648Z,102576.38
2023-04-16T22:44:05.811Z,102575.63
2023-04-16T22:46:33.628Z,102573.72
2023-04-16T22:49:01.422Z,102570.22
2023-04-16T22:51:29.243Z,102572.91
2023-04-16T22:53:57.394Z,102577.97
2023-04-16T22:56:28.662Z,102571.34
2023-04-16T22:58:56.521Z,102575.97
2023-04-16T23:01:25.907Z,102576.72
2023-04-16T23:03:53.870Z,102570.13
2023-04-16T23:06:21.997Z,102576.41
2023-04-16T23:08:49.816Z,102570.19
2023-04-16T23:11:17.616Z,102576.03
2023-04-16T23:13:45.525Z,102577.19
2023-04-16T23:16:13.371Z,102581.84
2023-04-16T23:18:42.512Z,102580.00
2023-04-16T23:21:10.477Z,102580.34
2023-04-16T23:23:38.233Z,102575.66
2023-04-16T23:26:06.163Z,102581.53
2023-04-16T23:28:33.994Z,102583.06
2023-04-16T23:31:01.800Z,102585.75
2023-04-16T23:33:29.636Z,102587.69
2023-04-16T23:35:58.817Z,102586.16
2023-04-16T23:38:26.550Z,102587.69
2023-04-16T23:40:54.313Z,102583.81
2023-04-16T23:43:22.070Z,102585.75
2023-04-16T23:45:49.861Z,102583.44
2023-04-16T23:48:17.693Z,102583.44
2023-04-16T23:50:45.504Z,102588.50
2023-04-16T23:53:14.628Z,102591.22
2023-04-16T23:55:42.383Z,102582.28
2023-04-16T23:58:10.277Z,102579.97
